Coleman, Texas
Current Conditions -  °F | °C
As of 8:15 PM on Friday 28 Nov 2014 (Local Time) from KCOM Reporting Station
Clear Clear  
Wind Chill: 56°   Ceiling: Unl
Heat Index: 56°   Visibility: 10mi
Dew Point: 44°   Wind: 7mph
Humidity: 63%   Direction: 210°SSW
Pressure: 30.04"   Gusts: NA
Location:  31.83°N, 99.43°W
Report Text: KCOM 290215Z AUTO 21006KT 10SM CLR 13/06 A3004 RMK AO2 T01320064
Loading
Personal Weather Stations






























Interactive Weather Map New forecast layout! Learn more

10-Day Weather Forecast

Advertisements
Track Severe Weather on mobile